Time;durP1;ratioP1;P1;durP2;ratioP2;P2;SDS_P1;SDS_P2;PMS_P1;PMS_P2;Temp;Humidity;BMP_temperature;BMP_pressure;BME280_temperature;BME280_humidity;BME280_pressure;Samples;Min_cycle;Max_cycle;Signal;HPM_P1;HPM_P2
2021/05/17 18:24:15;;;;;;;0.77;0.50;;;;;;;10.84;79.26;95259.50;4399727;32;20213;-74
2021/05/17 18:26:40;;;;;;;1.20;0.40;;;;;;;10.68;80.53;95258.09;4400304;32;20617;-74
2021/05/17 18:29:08;;;;;;;2.67;0.50;;;;;;;10.87;79.92;95261.06;4400353;32;20319;-74
2021/05/17 18:31:38;;;;;;;1.80;0.57;;;;;;;10.71;81.24;95258.72;4400274;32;20217;-74
2021/05/17 18:34:05;;;;;;;1.90;0.60;;;;;;;10.60;81.83;95258.66;4386986;32;20288;-74
2021/05/17 18:36:30;;;;;;;0.80;0.40;;;;;;;10.55;82.20;95256.41;4400479;32;20225;-74
2021/05/17 18:38:55;;;;;;;2.60;0.40;;;;;;;10.49;83.07;95251.63;4400289;32;20642;-74
2021/05/17 18:41:20;;;;;;;1.43;0.60;;;;;;;10.43;83.36;95266.81;4400446;32;20221;-74
2021/05/17 18:46:20;;;;;;;1.30;0.50;;;;;;;10.34;83.16;95266.47;4399927;32;20249;-74
2021/05/17 18:48:45;;;;;;;2.03;0.60;;;;;;;10.07;84.07;95266.63;4400404;32;20382;-74
2021/05/17 18:51:10;;;;;;;1.63;0.60;;;;;;;9.94;85.49;95273.56;4400284;32;20213;-76
2021/05/17 18:53:35;;;;;;;1.95;0.52;;;;;;;9.88;85.73;95282.56;4400363;32;20277;-74
2021/05/17 18:56:00;;;;;;;1.30;0.50;;;;;;;9.94;85.50;95289.91;4399977;32;20549;-74
2021/05/17 18:58:25;;;;;;;0.98;0.60;;;;;;;9.90;86.19;95287.62;4400045;32;20284;-74
2021/05/17 19:00:51;;;;;;;1.55;0.55;;;;;;;9.88;86.06;95290.31;4399962;32;20240;-75
2021/05/17 19:03:16;;;;;;;1.00;0.55;;;;;;;9.78;86.79;95302.22;4400113;32;20225;-74
2021/05/17 19:05:41;;;;;;;2.40;0.53;;;;;;;9.74;87.52;95316.28;4386285;32;20530;-74
2021/05/17 19:08:07;;;;;;;1.90;0.60;;;;;;;9.83;87.03;95310.50;4399799;32;20545;-74
2021/05/17 19:10:32;;;;;;;1.08;0.60;;;;;;;9.78;87.35;95329.84;4400343;32;20810;-74
2021/05/17 19:12:58;;;;;;;1.70;0.50;;;;;;;9.81;87.22;95335.63;4398168;32;20617;-73
2021/05/17 19:15:23;;;;;;;2.35;0.60;;;;;;;9.68;88.14;95345.97;4391461;32;20629;-74
2021/05/17 19:17:48;;;;;;;3.13;0.80;;;;;;;9.63;88.70;95358.34;4389672;32;20273;-74
2021/05/17 19:20:15;;;;;;;1.87;0.65;;;;;;;9.66;89.22;95365.09;4392075;32;20255;-74
2021/05/17 19:22:40;;;;;;;2.25;0.85;;;;;;;9.59;89.61;95369.00;4391024;32;20147;-74
2021/05/17 19:25:07;;;;;;;1.55;0.50;;;;;;;9.63;90.01;95362.72;4390419;32;20225;-74
2021/05/17 19:27:32;;;;;;;1.20;0.52;;;;;;;9.60;90.06;95368.06;4383722;32;20187;-74
2021/05/17 19:29:57;;;;;;;1.85;0.50;;;;;;;9.58;90.42;95367.37;4377220;32;20244;-74
2021/05/17 19:32:24;;;;;;;1.35;0.60;;;;;;;9.59;90.76;95371.59;4380958;32;20242;-74
2021/05/17 19:34:49;;;;;;;0.60;0.50;;;;;;;9.52;91.34;95368.56;4379844;32;20302;-74
2021/05/17 19:37:15;;;;;;;0.80;0.52;;;;;;;9.52;91.67;95360.81;4381049;32;20230;-74
2021/05/17 19:39:40;;;;;;;1.87;0.70;;;;;;;9.53;91.71;95359.91;4380530;32;20985;-74
2021/05/17 19:42:05;;;;;;;7.47;1.12;;;;;;;9.52;91.50;95363.41;4380208;32;20786;-74
2021/05/17 19:44:31;;;;;;;2.43;1.70;;;;;;;9.50;91.94;95365.28;4381782;32;20232;-74
2021/05/17 19:46:56;;;;;;;1.13;0.67;;;;;;;9.50;92.17;95375.63;4389267;32;20364;-72
2021/05/17 19:49:22;;;;;;;5.53;0.80;;;;;;;9.51;92.50;95371.28;4389628;32;20607;-72
2021/05/17 19:51:47;;;;;;;1.70;0.75;;;;;;;9.57;93.63;95371.72;4389184;32;20332;-71
2021/05/17 19:54:12;;;;;;;2.58;0.93;;;;;;;9.51;95.13;95387.59;4387816;32;20299;-72
2021/05/17 19:56:37;;;;;;;3.13;0.73;;;;;;;9.59;96.63;95389.69;4388701;32;20648;-72
2021/05/17 19:59:02;;;;;;;2.17;0.85;;;;;;;9.70;96.56;95389.81;4375424;32;20294;-72
2021/05/17 20:01:28;;;;;;;1.10;0.57;;;;;;;9.66;96.38;95383.19;4388824;32;20253;-72
2021/05/17 20:03:55;;;;;;;1.40;0.55;;;;;;;9.57;97.17;95381.22;4389400;32;20214;-72
2021/05/17 20:06:20;;;;;;;1.52;0.50;;;;;;;9.60;97.52;95388.75;4389051;32;20457;-72
2021/05/17 20:08:45;;;;;;;1.73;0.60;;;;;;;9.50;98.50;95382.56;4389343;32;20902;-72
2021/05/17 20:11:10;;;;;;;1.57;0.67;;;;;;;9.35;99.64;95387.78;4375052;32;20233;-72
2021/05/17 20:13:35;;;;;;;1.70;1.05;;;;;;;9.31;99.99;95395.81;4388999;32;20293;-73
2021/05/17 20:16:00;;;;;;;0.95;0.70;;;;;;;9.35;100.00;95407.63;4388687;32;20236;-72
2021/05/17 20:18:26;;;;;;;1.23;0.77;;;;;;;9.33;100.00;95410.28;4388713;32;20217;-73
2021/05/17 20:20:51;;;;;;;1.47;0.60;;;;;;;9.36;100.00;95415.25;4388430;32;20218;-73
2021/05/17 20:23:16;;;;;;;2.77;0.70;;;;;;;9.36;100.00;95409.28;4388781;32;20243;-73
2021/05/17 20:25:41;;;;;;;1.77;0.80;;;;;;;9.25;100.00;95414.28;4389169;32;20233;-72
2021/05/17 20:28:06;;;;;;;1.70;0.80;;;;;;;9.31;100.00;95419.09;4388416;32;20263;-73
2021/05/17 20:30:31;;;;;;;1.20;0.80;;;;;;;9.28;100.00;95420.09;4388673;32;20214;-73
2021/05/17 20:32:59;;;;;;;1.87;1.00;;;;;;;9.20;100.00;95418.00;4389041;32;20251;-73
2021/05/17 20:35:44;;;;;;;2.87;1.10;;;;;;;9.27;100.00;95427.94;4388815;32;20551;-73
2021/05/17 20:38:09;;;;;;;3.67;0.82;;;;;;;9.23;100.00;95423.88;4388286;32;20214;-72
2021/05/17 20:40:34;;;;;;;2.92;1.20;;;;;;;9.19;100.00;95421.47;4374226;32;20301;-73
2021/05/17 20:43:09;;;;;;;5.83;1.10;;;;;;;9.22;100.00;95425.63;4374375;32;20273;-73
2021/05/17 20:45:34;;;;;;;1.95;1.10;;;;;;;9.09;100.00;95417.03;4388713;32;20234;-73
2021/05/17 20:47:59;;;;;;;2.80;1.10;;;;;;;9.10;100.00;95424.66;4388367;32;20209;-75
2021/05/17 20:50:24;;;;;;;5.13;1.40;;;;;;;9.07;100.00;95422.25;4388423;32;20252;-75
2021/05/17 20:52:49;;;;;;;3.47;0.82;;;;;;;9.09;100.00;95422.19;4388470;32;20256;-74
2021/05/17 20:55:15;;;;;;;2.60;0.88;;;;;;;9.09;100.00;95417.03;4388614;32;20296;-74
2021/05/17 20:57:41;;;;;;;3.85;1.05;;;;;;;9.04;100.00;95413.88;4388010;32;20225;-74
2021/05/17 21:00:06;;;;;;;2.80;0.68;;;;;;;9.05;100.00;95416.38;4388837;32;20221;-75
2021/05/17 21:02:31;;;;;;;2.50;1.10;;;;;;;8.92;100.00;95416.28;4388676;32;20544;-74
2021/05/17 21:04:56;;;;;;;1.50;0.70;;;;;;;8.90;100.00;95418.16;4388298;32;20252;-74
2021/05/17 21:07:21;;;;;;;1.20;0.60;;;;;;;8.88;100.00;95414.00;4387822;32;20275;-75
2021/05/17 21:09:46;;;;;;;2.72;0.88;;;;;;;8.80;100.00;95418.81;4388379;32;20260;-74
2021/05/17 21:12:11;;;;;;;1.27;0.52;;;;;;;8.84;100.00;95418.53;4387784;32;20214;-75
2021/05/17 21:14:36;;;;;;;1.83;0.70;;;;;;;8.88;100.00;95419.16;4388392;32;20209;-75
2021/05/17 21:17:01;;;;;;;3.25;0.50;;;;;;;8.86;100.00;95418.41;4388054;32;20603;-75
2021/05/17 21:19:26;;;;;;;0.60;0.40;;;;;;;8.75;100.00;95416.53;4388150;32;20293;-75
2021/05/17 21:21:51;;;;;;;4.10;0.70;;;;;;;8.67;100.00;95424.72;4388131;32;20264;-75
2021/05/17 21:24:17;;;;;;;3.40;0.50;;;;;;;8.76;100.00;95427.69;4388237;32;20213;-75
2021/05/17 21:26:42;;;;;;;2.10;0.60;;;;;;;8.65;100.00;95433.50;4387601;32;20302;-75
2021/05/17 21:29:08;;;;;;;1.20;0.50;;;;;;;8.56;100.00;95434.84;4388412;32;20218;-74
2021/05/17 21:31:33;;;;;;;2.20;0.45;;;;;;;8.55;100.00;95440.12;4387803;32;20226;-74
2021/05/17 21:33:58;;;;;;;1.15;0.45;;;;;;;8.63;100.00;95446.47;4387597;32;20263;-74
2021/05/17 21:36:23;;;;;;;2.00;0.43;;;;;;;8.61;100.00;95445.75;4387925;32;20244;-75
2021/05/17 21:38:50;;;;;;;1.30;0.50;;;;;;;8.65;98.90;95448.97;4388057;32;20217;-74
2021/05/17 21:41:15;;;;;;;0.57;0.40;;;;;;;8.67;97.63;95441.94;4387884;32;20606;-74
2021/05/17 21:43:40;;;;;;;0.68;0.50;;;;;;;8.78;97.51;95452.47;4388054;32;20633;-75
2021/05/17 21:46:05;;;;;;;0.75;0.30;;;;;;;8.73;98.52;95446.75;4387965;32;20221;-74
2021/05/17 21:48:30;;;;;;;1.10;0.37;;;;;;;8.68;99.02;95459.13;4387852;32;20248;-75
2021/05/17 21:50:55;;;;;;;1.12;0.30;;;;;;;8.76;98.00;95459.47;4387689;32;20268;-74
2021/05/17 21:53:20;;;;;;;1.40;0.40;;;;;;;8.81;97.56;95456.63;4387623;32;20221;-74
2021/05/17 21:55:46;;;;;;;0.77;0.25;;;;;;;8.82;96.01;95453.94;4387606;32;20214;-74
2021/05/17 21:58:11;;;;;;;1.30;0.40;;;;;;;8.78;96.79;95451.63;4387608;32;20234;-74
2021/05/17 22:00:36;;;;;;;0.70;0.30;;;;;;;8.58;97.49;95461.41;4387732;32;20225;-74
2021/05/17 22:03:01;;;;;;;0.50;0.40;;;;;;;8.67;98.20;95470.34;4387313;32;20633;-74
2021/05/17 22:05:26;;;;;;;0.65;0.40;;;;;;;8.75;97.24;95469.88;4387643;32;20226;-74
2021/05/17 22:10:35;;;;;;;2.62;0.50;;;;;;;8.65;98.84;95472.22;4387569;32;20244;-75
2021/05/17 22:13:00;;;;;;;1.30;0.37;;;;;;;8.71;98.90;95466.66;4387759;32;20284;-74
2021/05/17 22:15:28;;;;;;;0.70;0.43;;;;;;;8.46;99.56;95482.81;4387544;32;20225;-74
2021/05/17 22:17:54;;;;;;;1.77;0.55;;;;;;;8.42;100.00;95478.75;4386809;32;20331;-74
2021/05/17 22:20:20;;;;;;;0.73;0.40;;;;;;;8.42;99.92;95482.16;4387343;32;20221;-75
2021/05/17 22:22:45;;;;;;;0.60;0.37;;;;;;;8.37;100.00;95484.16;4387496;32;20327;-75
2021/05/17 22:25:10;;;;;;;0.43;0.25;;;;;;;8.32;100.00;95487.91;4387923;32;20259;-75
2021/05/17 22:27:35;;;;;;;0.63;0.30;;;;;;;8.18;100.00;95483.53;4387131;32;20214;-75
2021/05/17 22:30:00;;;;;;;0.70;0.32;;;;;;;8.20;100.00;95484.28;4387623;32;20244;-75
2021/05/17 22:32:26;;;;;;;0.40;0.25;;;;;;;8.24;100.00;95476.28;4387524;32;20253;-74
2021/05/17 22:34:51;;;;;;;0.60;0.30;;;;;;;8.24;100.00;95478.03;4387314;32;20542;-75
2021/05/17 22:37:16;;;;;;;0.40;0.25;;;;;;;8.34;100.00;95479.13;4387395;32;20297;-75
2021/05/17 22:39:41;;;;;;;0.60;0.35;;;;;;;8.41;100.00;95475.31;4387840;32;20222;-75
2021/05/17 22:42:06;;;;;;;0.82;0.37;;;;;;;8.51;100.00;95479.94;4386979;32;20249;-75
2021/05/17 22:44:31;;;;;;;0.60;0.30;;;;;;;8.52;100.00;95471.28;4387362;32;20248;-74
2021/05/17 22:46:56;;;;;;;1.70;0.50;;;;;;;8.46;100.00;95465.56;4387025;32;20222;-75
2021/05/17 22:49:21;;;;;;;0.32;0.25;;;;;;;8.39;100.00;95479.75;4387312;32;20252;-75
2021/05/17 22:51:46;;;;;;;3.30;0.40;;;;;;;8.33;100.00;95480.06;4387108;32;20217;-75
2021/05/17 22:54:13;;;;;;;2.12;0.40;;;;;;;8.43;100.00;95477.81;4387186;32;20218;-74
2021/05/17 22:56:38;;;;;;;1.50;0.40;;;;;;;8.20;100.00;95473.97;4386565;32;20230;-74
2021/05/17 22:59:04;;;;;;;0.80;0.40;;;;;;;8.18;100.00;95468.88;4387208;32;20248;-74
2021/05/17 23:01:29;;;;;;;1.77;0.40;;;;;;;8.16;100.00;95468.16;4387363;32;20291;-75
2021/05/17 23:03:54;;;;;;;1.00;0.40;;;;;;;8.12;100.00;95460.66;4387188;32;20286;-74
2021/05/17 23:06:19;;;;;;;0.52;0.20;;;;;;;8.06;100.00;95477.34;4389622;32;20658;-74
2021/05/17 23:08:44;;;;;;;3.27;0.50;;;;;;;8.05;100.00;95480.03;4389934;32;20225;-75
2021/05/17 23:11:09;;;;;;;1.00;0.40;;;;;;;8.00;100.00;95486.25;4389760;32;20249;-75
2021/05/17 23:13:34;;;;;;;0.95;0.40;;;;;;;8.04;100.00;95481.75;4390031;32;20214;-75
2021/05/17 23:16:00;;;;;;;0.85;0.25;;;;;;;8.02;100.00;95481.03;4389758;32;20257;-75
2021/05/17 23:18:25;;;;;;;0.77;0.30;;;;;;;8.07;100.00;95476.41;4389491;32;20255;-75
2021/05/17 23:21:13;;;;;;;0.55;0.37;;;;;;;8.15;100.00;95487.13;4389482;32;20221;-75
2021/05/17 23:28:47;;;;;;;0.88;0.40;;;;;;;8.11;99.07;95487.38;4389404;32;20335;-75
2021/05/17 23:31:12;;;;;;;3.70;0.37;;;;;;;8.10;98.34;95483.97;4389808;32;20214;-75
2021/05/17 23:33:37;;;;;;;1.20;0.20;;;;;;;8.18;100.00;95486.13;4375884;32;20248;-74
2021/05/17 23:36:02;;;;;;;1.37;0.25;;;;;;;8.21;99.83;95493.69;4389200;32;20217;-75
2021/05/17 23:38:27;;;;;;;0.75;0.20;;;;;;;8.06;99.41;95490.25;4389524;32;20256;-75
2021/05/17 23:40:53;;;;;;;0.57;0.25;;;;;;;8.09;100.00;95484.91;4389886;32;20218;-75
2021/05/17 23:43:18;;;;;;;0.70;0.30;;;;;;;8.20;100.00;95492.03;4389199;32;20247;-75
2021/05/17 23:45:43;;;;;;;1.27;0.30;;;;;;;8.23;99.81;95495.25;4389897;32;20256;-75
2021/05/17 23:48:08;;;;;;;1.10;0.20;;;;;;;8.26;100.00;95494.25;4388752;32;20213;-75
2021/05/17 23:50:33;;;;;;;0.60;0.22;;;;;;;8.29;100.00;95496.66;4389460;32;20214;-75
2021/05/17 23:52:58;;;;;;;1.20;0.28;;;;;;;8.38;98.88;95496.16;4389324;32;20217;-75
2021/05/17 23:55:23;;;;;;;0.32;0.17;;;;;;;8.32;97.25;95493.88;4389764;32;20222;-75
2021/05/17 23:57:48;;;;;;;0.90;0.30;;;;;;;8.32;99.04;95501.63;4388937;32;20601;-75
